PWSweather.com
Personal Weather Stations
Station Observations
KAZPHOEN90
RayThunderhill, Phoenix, AZ

RayThunderhillPhoenix, AZ

Lat: 33.312, Lon: -112.029

Elevation: 1260

Station Type: Davis Vantage VUE

High Low Average
Temperature 85.8°F29.9°F 62.1°F16.7°F 75.9°F24.4°F
Dew Point 34.1°F1.2°F 1.8°F-16.8°F 20.0°F-6.7°F
Winds 6.6 mph WSW10.6 mph WSW Calm Calm 1.7 mph 2.7 mph
Wind Gusts 14.0 mph22.5 mph -- 3.6 mph5.8 mph
Humidity 30% 4% 14%
Pressure 29.77 in1008.10 in 29.61 in1002.70 in -
Precipitation 0.00 in0.00 in - -
Hour Temp Dew Point Humidity Winds Wind Gusts Pressure Precip Precip Rate Daily Precip Total
12:00 AM 79.0°F26.1°C 31.9°F-0.1°C 18% 4.1 mph WSW6.6 kmh WSW 10.0 mph16.1 kmh 29.61 in1002.7 mb 0.00 in0.0 mm 0.00 in/hr0.0 mm/hr 0.00 in0.0 mm
12:15 AM 78.7°F25.9°C 31.6°F-0.2°C 18% 6.6 mph WSW10.6 kmh WSW 12.0 mph19.3 kmh 29.62 in1003.0 mb 0.00 in0.0 mm 0.00 in/hr0.0 mm/hr 0.00 in0.0 mm
12:30 AM 78.4°F25.8°C 32.7°F0.4°C 19% 4.9 mph WSW7.9 kmh WSW 10.0 mph16.1 kmh 29.62 in1003.0 mb 0.00 in0.0 mm 0.00 in/hr0.0 mm/hr 0.00 in0.0 mm
12:45 AM 77.7°F25.4°C 33.4°F0.8°C 20% 5.2 mph WSW8.4 kmh WSW 9.0 mph14.5 kmh 29.62 in1003.0 mb 0.00 in0.0 mm 0.00 in/hr0.0 mm/hr 0.00 in0.0 mm
01:00 AM 77.0°F25.0°C 34.1°F1.2°C 21% 3.8 mph SW6.1 kmh SW 7.0 mph11.3 kmh 29.63 in1003.4 mb 0.00 in0.0 mm 0.00 in/hr0.0 mm/hr 0.00 in0.0 mm
01:15 AM 76.4°F24.7°C 33.6°F0.9°C 21% 4.2 mph W6.8 kmh W 7.0 mph11.3 kmh 29.62 in1003.0 mb 0.00 in0.0 mm 0.00 in/hr0.0 mm/hr 0.00 in0.0 mm
01:30 AM 76.5°F24.7°C 32.4°F0.2°C 20% 3.8 mph W6.1 kmh W 6.0 mph9.7 kmh 29.62 in1003.0 mb 0.00 in0.0 mm 0.00 in/hr0.0 mm/hr 0.00 in0.0 mm
01:45 AM 76.8°F24.9°C 31.4°F-0.3°C 19% 4.7 mph SW7.6 kmh SW 7.0 mph11.3 kmh 29.62 in1003.0 mb 0.00 in0.0 mm 0.00 in/hr0.0 mm/hr 0.00 in0.0 mm
02:00 AM 76.1°F24.5°C 32.1°F0.1°C 20% 2.7 mph WSW4.3 kmh WSW 7.0 mph11.3 kmh 29.63 in1003.4 mb 0.00 in0.0 mm 0.00 in/hr0.0 mm/hr 0.00 in0.0 mm
02:15 AM 75.0°F23.9°C 31.2°F-0.4°C 20% 2.3 mph WSW3.7 kmh WSW 5.0 mph8.0 kmh 29.62 in1003.0 mb 0.00 in0.0 mm 0.00 in/hr0.0 mm/hr 0.00 in0.0 mm
02:30 AM 74.2°F23.4°C 30.5°F-0.8°C 20% 3.5 mph WNW5.6 kmh WNW 6.0 mph9.7 kmh 29.62 in1003.0 mb 0.00 in0.0 mm 0.00 in/hr0.0 mm/hr 0.00 in0.0 mm
02:45 AM 73.9°F23.3°C 30.3°F-0.9°C 20% 0.5 mph WSW0.8 kmh WSW 1.0 mph1.6 kmh 29.63 in1003.4 mb 0.00 in0.0 mm 0.00 in/hr0.0 mm/hr 0.00 in0.0 mm
03:00 AM 73.4°F23.0°C 29.9°F-1.2°C 20% 2.1 mph WSW3.4 kmh WSW 4.0 mph6.4 kmh 29.63 in1003.4 mb 0.00 in0.0 mm 0.00 in/hr0.0 mm/hr 0.00 in0.0 mm
03:15 AM 73.1°F22.8°C 29.6°F-1.3°C 20% 0.2 mph W0.3 kmh W 1.0 mph1.6 kmh 29.63 in1003.4 mb 0.00 in0.0 mm 0.00 in/hr0.0 mm/hr 0.00 in0.0 mm
03:30 AM 73.0°F22.8°C 28.2°F-2.1°C 19% Calm Calm -- 29.63 in1003.4 mb 0.00 in0.0 mm 0.00 in/hr0.0 mm/hr 0.00 in0.0 mm
03:45 AM 71.6°F22.0°C 28.4°F-2.0°C 20% Calm Calm -- 29.63 in1003.4 mb 0.00 in0.0 mm 0.00 in/hr0.0 mm/hr 0.00 in0.0 mm
04:00 AM 69.9°F21.1°C 29.3°F-1.5°C 22% Calm Calm -- 29.64 in1003.7 mb 0.00 in0.0 mm 0.00 in/hr0.0 mm/hr 0.00 in0.0 mm
04:15 AM 67.9°F19.9°C 29.8°F-1.2°C 24% Calm Calm -- 29.64 in1003.7 mb 0.00 in0.0 mm 0.00 in/hr0.0 mm/hr 0.00 in0.0 mm
04:30 AM 66.5°F19.2°C 31.4°F-0.3°C 27% Calm Calm -- 29.64 in1003.7 mb 0.00 in0.0 mm 0.00 in/hr0.0 mm/hr 0.00 in0.0 mm
04:45 AM 65.4°F18.6°C 32.3°F0.2°C 29% Calm Calm -- 29.64 in1003.7 mb 0.00 in0.0 mm 0.00 in/hr0.0 mm/hr 0.00 in0.0 mm
05:00 AM 64.5°F18.1°C 31.5°F-0.3°C 29% Calm Calm -- 29.64 in1003.7 mb 0.00 in0.0 mm 0.00 in/hr0.0 mm/hr 0.00 in0.0 mm
05:15 AM 62.8°F17.1°C 30.9°F-0.6°C 30% Calm Calm -- 29.65 in1004.1 mb 0.00 in0.0 mm 0.00 in/hr0.0 mm/hr 0.00 in0.0 mm
05:30 AM 62.1°F16.7°C 30.3°F-0.9°C 30% 0.1 mph WSW0.2 kmh WSW 1.0 mph1.6 kmh 29.65 in1004.1 mb 0.00 in0.0 mm 0.00 in/hr0.0 mm/hr 0.00 in0.0 mm
05:45 AM 65.4°F18.6°C 25.6°F-3.6°C 22% 0.5 mph W0.8 kmh W 1.0 mph1.6 kmh 29.66 in1004.4 mb 0.00 in0.0 mm 0.00 in/hr0.0 mm/hr 0.00 in0.0 mm
06:00 AM 65.5°F18.6°C 24.5°F-4.2°C 21% 0.1 mph W0.2 kmh W 1.0 mph1.6 kmh 29.66 in1004.4 mb 0.00 in0.0 mm 0.00 in/hr0.0 mm/hr 0.00 in0.0 mm
06:15 AM 65.4°F18.6°C 25.5°F-3.6°C 22% Calm Calm 1.0 mph1.6 kmh 29.66 in1004.4 mb 0.00 in0.0 mm 0.00 in/hr0.0 mm/hr 0.00 in0.0 mm
06:30 AM 64.5°F18.1°C 24.8°F-4.0°C 22% 0.5 mph W0.8 kmh W 1.0 mph1.6 kmh 29.67 in1004.7 mb 0.00 in0.0 mm 0.00 in/hr0.0 mm/hr 0.00 in0.0 mm
06:45 AM 65.8°F18.8°C 28.0°F-2.2°C 24% 0.3 mph WSW0.5 kmh WSW -- 29.67 in1004.7 mb 0.00 in0.0 mm 0.00 in/hr0.0 mm/hr 0.00 in0.0 mm
07:00 AM 66.3°F19.1°C 29.4°F-1.4°C 25% 0.2 mph SW0.3 kmh SW 2.0 mph3.2 kmh 29.68 in1005.1 mb 0.00 in0.0 mm 0.00 in/hr0.0 mm/hr 0.00 in0.0 mm
07:15 AM 67.2°F19.6°C 25.9°F-3.4°C 21% 0.4 mph WSW0.6 kmh WSW 2.0 mph3.2 kmh 29.68 in1005.1 mb 0.00 in0.0 mm 0.00 in/hr0.0 mm/hr 0.00 in0.0 mm
07:30 AM 67.7°F19.8°C 26.3°F-3.2°C 21% Calm Calm 1.0 mph1.6 kmh 29.70 in1005.8 mb 0.00 in0.0 mm 0.00 in/hr0.0 mm/hr 0.00 in0.0 mm
07:45 AM 69.2°F20.7°C 26.4°F-3.1°C 20% 0.1 mph ESE0.2 kmh ESE 1.0 mph1.6 kmh 29.69 in1005.4 mb 0.00 in0.0 mm 0.00 in/hr0.0 mm/hr 0.00 in0.0 mm
08:00 AM 70.0°F21.1°C 27.0°F-2.8°C 20% 0.3 mph ESE0.5 kmh ESE 1.0 mph1.6 kmh 29.70 in1005.8 mb 0.00 in0.0 mm 0.00 in/hr0.0 mm/hr 0.00 in0.0 mm
08:15 AM 70.5°F21.4°C 24.9°F-3.9°C 18% 0.1 mph ESE0.2 kmh ESE 1.0 mph1.6 kmh 29.70 in1005.8 mb 0.00 in0.0 mm 0.00 in/hr0.0 mm/hr 0.00 in0.0 mm
08:30 AM 71.1°F21.7°C 24.0°F-4.4°C 17% 1.0 mph ESE1.6 kmh ESE 2.0 mph3.2 kmh 29.70 in1005.8 mb 0.00 in0.0 mm 0.00 in/hr0.0 mm/hr 0.00 in0.0 mm
08:45 AM 72.5°F22.5°C 23.7°F-4.6°C 16% Calm Calm -- 29.71 in1006.1 mb 0.00 in0.0 mm 0.00 in/hr0.0 mm/hr 0.00 in0.0 mm
09:00 AM 73.5°F23.1°C 23.0°F-5.0°C 15% 0.4 mph NNW0.6 kmh NNW 1.0 mph1.6 kmh 29.71 in1006.1 mb 0.00 in0.0 mm 0.00 in/hr0.0 mm/hr 0.00 in0.0 mm
09:15 AM 75.5°F24.2°C 27.6°F-2.4°C 17% 0.4 mph SW0.6 kmh SW 2.0 mph3.2 kmh 29.72 in1006.4 mb 0.00 in0.0 mm 0.00 in/hr0.0 mm/hr 0.00 in0.0 mm
09:30 AM 76.1°F24.5°C 23.4°F-4.8°C 14% 2.3 mph WNW3.7 kmh WNW 3.0 mph4.8 kmh 29.71 in1006.1 mb 0.00 in0.0 mm 0.00 in/hr0.0 mm/hr 0.00 in0.0 mm
09:45 AM 76.2°F24.6°C 17.8°F-7.9°C 11% 2.6 mph NW4.2 kmh NW 6.0 mph9.7 kmh 29.73 in1006.8 mb 0.00 in0.0 mm 0.00 in/hr0.0 mm/hr 0.00 in0.0 mm
10:00 AM 77.2°F25.1°C 16.4°F-8.7°C 10% 1.9 mph NNW3.1 kmh NNW 4.0 mph6.4 kmh 29.73 in1006.8 mb 0.00 in0.0 mm 0.00 in/hr0.0 mm/hr 0.00 in0.0 mm
10:15 AM 77.7°F25.4°C 19.0°F-7.2°C 11% 2.8 mph W4.5 kmh W 5.0 mph8.0 kmh 29.73 in1006.8 mb 0.00 in0.0 mm 0.00 in/hr0.0 mm/hr 0.00 in0.0 mm
10:30 AM 78.0°F25.6°C 17.0°F-8.3°C 10% 0.7 mph WSW1.1 kmh WSW 1.0 mph1.6 kmh 29.73 in1006.8 mb 0.00 in0.0 mm 0.00 in/hr0.0 mm/hr 0.00 in0.0 mm
10:45 AM 78.3°F25.7°C 14.8°F-9.6°C 9% 0.7 mph W1.1 kmh W 3.0 mph4.8 kmh 29.72 in1006.4 mb 0.00 in0.0 mm 0.00 in/hr0.0 mm/hr 0.00 in0.0 mm
11:00 AM 78.9°F26.1°C 17.7°F-7.9°C 10% 0.8 mph WSW1.3 kmh WSW 2.0 mph3.2 kmh 29.72 in1006.4 mb 0.00 in0.0 mm 0.00 in/hr0.0 mm/hr 0.00 in0.0 mm
11:15 AM 80.4°F26.9°C 16.3°F-8.7°C 9% 2.9 mph SE4.7 kmh SE 5.0 mph8.0 kmh 29.72 in1006.4 mb 0.00 in0.0 mm 0.00 in/hr0.0 mm/hr 0.00 in0.0 mm
11:30 AM 81.3°F27.4°C 17.0°F-8.3°C 9% 3.3 mph W5.3 kmh W 6.0 mph9.7 kmh 29.72 in1006.4 mb 0.00 in0.0 mm 0.00 in/hr0.0 mm/hr 0.00 in0.0 mm
11:45 AM 82.2°F27.9°C 17.7°F-7.9°C 9% 0.6 mph WSW1.0 kmh WSW 2.0 mph3.2 kmh 29.71 in1006.1 mb 0.00 in0.0 mm 0.00 in/hr0.0 mm/hr 0.00 in0.0 mm
12:00 PM 82.6°F28.1°C 15.3°F-9.3°C 8% 2.6 mph SSW4.2 kmh SSW 5.0 mph8.0 kmh 29.71 in1006.1 mb 0.00 in0.0 mm 0.00 in/hr0.0 mm/hr 0.00 in0.0 mm
12:15 PM 82.7°F28.2°C 15.4°F-9.2°C 8% 3.2 mph ESE5.1 kmh ESE 7.0 mph11.3 kmh 29.72 in1006.4 mb 0.00 in0.0 mm 0.00 in/hr0.0 mm/hr 0.00 in0.0 mm
12:30 PM 82.5°F28.1°C 12.2°F-11.0°C 7% 2.4 mph SSE3.9 kmh SSE 3.0 mph4.8 kmh 29.71 in1006.1 mb 0.00 in0.0 mm 0.00 in/hr0.0 mm/hr 0.00 in0.0 mm
12:45 PM 83.6°F28.7°C 16.0°F-8.9°C 8% 4.6 mph WSW7.4 kmh WSW 10.0 mph16.1 kmh 29.71 in1006.1 mb 0.00 in0.0 mm 0.00 in/hr0.0 mm/hr 0.00 in0.0 mm
01:00 PM 83.6°F28.7°C 13.0°F-10.6°C 7% 1.6 mph SSE2.6 kmh SSE 3.0 mph4.8 kmh 29.72 in1006.4 mb 0.00 in0.0 mm 0.00 in/hr0.0 mm/hr 0.00 in0.0 mm
01:15 PM 84.0°F28.9°C 19.1°F-7.2°C 9% 1.7 mph WSW2.7 kmh WSW 6.0 mph9.7 kmh 29.71 in1006.1 mb 0.00 in0.0 mm 0.00 in/hr0.0 mm/hr 0.00 in0.0 mm
01:30 PM 83.8°F28.8°C 18.9°F-7.3°C 9% 5.4 mph W8.7 kmh W 8.0 mph12.9 kmh 29.72 in1006.4 mb 0.00 in0.0 mm 0.00 in/hr0.0 mm/hr 0.00 in0.0 mm
01:45 PM 83.8°F28.8°C 18.9°F-7.3°C 9% 4.6 mph SW7.4 kmh SW 7.0 mph11.3 kmh 29.72 in1006.4 mb 0.00 in0.0 mm 0.00 in/hr0.0 mm/hr 0.00 in0.0 mm
02:00 PM 84.0°F28.9°C 16.3°F-8.7°C 8% 5.1 mph WSW8.2 kmh WSW 9.0 mph14.5 kmh 29.71 in1006.1 mb 0.00 in0.0 mm 0.00 in/hr0.0 mm/hr 0.00 in0.0 mm
02:15 PM 83.4°F28.6°C 18.6°F-7.4°C 9% 4.7 mph NW7.6 kmh NW 8.0 mph12.9 kmh 29.71 in1006.1 mb 0.00 in0.0 mm 0.00 in/hr0.0 mm/hr 0.00 in0.0 mm
02:30 PM 83.9°F28.8°C 13.2°F-10.4°C 7% 4.0 mph SW6.4 kmh SW 7.0 mph11.3 kmh 29.70 in1005.8 mb 0.00 in0.0 mm 0.00 in/hr0.0 mm/hr 0.00 in0.0 mm
02:45 PM 84.7°F29.3°C 10.3°F-12.1°C 6% 4.8 mph WNW7.7 kmh WNW 9.0 mph14.5 kmh 29.70 in1005.8 mb 0.00 in0.0 mm 0.00 in/hr0.0 mm/hr 0.00 in0.0 mm
03:00 PM 84.3°F29.1°C 10.0°F-12.2°C 6% 6.4 mph W10.3 kmh W 8.0 mph12.9 kmh 29.70 in1005.8 mb 0.00 in0.0 mm 0.00 in/hr0.0 mm/hr 0.00 in0.0 mm
03:15 PM 84.3°F29.1°C 13.5°F-10.3°C 7% 2.2 mph SW3.5 kmh SW 7.0 mph11.3 kmh 29.69 in1005.4 mb 0.00 in0.0 mm 0.00 in/hr0.0 mm/hr 0.00 in0.0 mm
03:30 PM 84.3°F29.1°C 10.0°F-12.2°C 6% 4.7 mph S7.6 kmh S 8.0 mph12.9 kmh 29.68 in1005.1 mb 0.00 in0.0 mm 0.00 in/hr0.0 mm/hr 0.00 in0.0 mm
03:45 PM 85.7°F29.8°C 11.0°F-11.7°C 6% 4.4 mph WNW7.1 kmh WNW 14.0 mph22.5 kmh 29.68 in1005.1 mb 0.00 in0.0 mm 0.00 in/hr0.0 mm/hr 0.00 in0.0 mm
04:00 PM 85.5°F29.7°C 10.9°F-11.7°C 6% 2.8 mph WSW4.5 kmh WSW 5.0 mph8.0 kmh 29.67 in1004.7 mb 0.00 in0.0 mm 0.00 in/hr0.0 mm/hr 0.00 in0.0 mm
04:15 PM 85.7°F29.8°C 7.0°F-13.9°C 5% 4.9 mph W7.9 kmh W 8.0 mph12.9 kmh 29.68 in1005.1 mb 0.00 in0.0 mm 0.00 in/hr0.0 mm/hr 0.00 in0.0 mm
04:30 PM 85.3°F29.6°C 1.8°F-16.8°C 4% 4.2 mph NW6.8 kmh NW 8.0 mph12.9 kmh 29.68 in1005.1 mb 0.00 in0.0 mm 0.00 in/hr0.0 mm/hr 0.00 in0.0 mm
04:45 PM 85.2°F29.6°C 6.6°F-14.1°C 5% 2.5 mph WSW4.0 kmh WSW 7.0 mph11.3 kmh 29.68 in1005.1 mb 0.00 in0.0 mm 0.00 in/hr0.0 mm/hr 0.00 in0.0 mm
05:00 PM 85.4°F29.7°C 6.7°F-14.1°C 5% 3.4 mph S5.5 kmh S 6.0 mph9.7 kmh 29.68 in1005.1 mb 0.00 in0.0 mm 0.00 in/hr0.0 mm/hr 0.00 in0.0 mm
05:15 PM 85.8°F29.9°C 11.1°F-11.6°C 6% 0.7 mph WSW1.1 kmh WSW 3.0 mph4.8 kmh 29.67 in1004.7 mb 0.00 in0.0 mm 0.00 in/hr0.0 mm/hr 0.00 in0.0 mm
05:30 PM 85.0°F29.4°C 6.5°F-14.2°C 5% 1.7 mph W2.7 kmh W 5.0 mph8.0 kmh 29.68 in1005.1 mb 0.00 in0.0 mm 0.00 in/hr0.0 mm/hr 0.00 in0.0 mm
05:45 PM 85.0°F29.4°C 6.4°F-14.2°C 5% 3.2 mph W5.1 kmh W 5.0 mph8.0 kmh 29.67 in1004.7 mb 0.00 in0.0 mm 0.00 in/hr0.0 mm/hr 0.00 in0.0 mm
06:00 PM 84.7°F29.3°C 6.3°F-14.3°C 5% 2.7 mph WSW4.3 kmh WSW 6.0 mph9.7 kmh 29.68 in1005.1 mb 0.00 in0.0 mm 0.00 in/hr0.0 mm/hr 0.00 in0.0 mm
06:15 PM 83.9°F28.8°C 9.7°F-12.4°C 6% 0.2 mph W0.3 kmh W 1.0 mph1.6 kmh 29.68 in1005.1 mb 0.00 in0.0 mm 0.00 in/hr0.0 mm/hr 0.00 in0.0 mm
06:30 PM 83.2°F28.4°C 5.2°F-14.9°C 5% 1.5 mph SW2.4 kmh SW 3.0 mph4.8 kmh 29.68 in1005.1 mb 0.00 in0.0 mm 0.00 in/hr0.0 mm/hr 0.00 in0.0 mm
06:45 PM 81.6°F27.6°C 8.1°F-13.3°C 6% 1.2 mph SW1.9 kmh SW 3.0 mph4.8 kmh 29.68 in1005.1 mb 0.00 in0.0 mm 0.00 in/hr0.0 mm/hr 0.00 in0.0 mm
07:00 PM 80.2°F26.8°C 10.5°F-11.9°C 7% 0.7 mph S1.1 kmh S 3.0 mph4.8 kmh 29.68 in1005.1 mb 0.00 in0.0 mm 0.00 in/hr0.0 mm/hr 0.00 in0.0 mm
07:15 PM 79.1°F26.2°C 12.7°F-10.7°C 8% Calm Calm 1.0 mph1.6 kmh 29.69 in1005.4 mb 0.00 in0.0 mm 0.00 in/hr0.0 mm/hr 0.00 in0.0 mm
07:30 PM 78.0°F25.6°C 11.8°F-11.2°C 8% Calm Calm -- 29.69 in1005.4 mb 0.00 in0.0 mm 0.00 in/hr0.0 mm/hr 0.00 in0.0 mm
07:45 PM 76.6°F24.8°C 13.5°F-10.3°C 9% Calm Calm -- 29.70 in1005.8 mb 0.00 in0.0 mm 0.00 in/hr0.0 mm/hr 0.00 in0.0 mm
08:00 PM 75.2°F24.0°C 14.8°F-9.6°C 10% 0.2 mph WSW0.3 kmh WSW 1.0 mph1.6 kmh 29.71 in1006.1 mb 0.00 in0.0 mm 0.00 in/hr0.0 mm/hr 0.00 in0.0 mm
08:15 PM 74.6°F23.7°C 14.4°F-9.8°C 10% Calm Calm -- 29.72 in1006.4 mb 0.00 in0.0 mm 0.00 in/hr0.0 mm/hr 0.00 in0.0 mm
08:30 PM 74.8°F23.8°C 12.1°F-11.1°C 9% Calm Calm 1.0 mph1.6 kmh 29.71 in1006.1 mb 0.00 in0.0 mm 0.00 in/hr0.0 mm/hr 0.00 in0.0 mm
08:45 PM 75.5°F24.2°C 10.0°F-12.2°C 8% Calm Calm -- 29.72 in1006.4 mb 0.00 in0.0 mm 0.00 in/hr0.0 mm/hr 0.00 in0.0 mm
09:00 PM 74.6°F23.7°C 16.5°F-8.6°C 11% Calm Calm -- 29.73 in1006.8 mb 0.00 in0.0 mm 0.00 in/hr0.0 mm/hr 0.00 in0.0 mm
09:15 PM 71.9°F22.2°C 16.5°F-8.6°C 12% Calm Calm -- 29.74 in1007.1 mb 0.00 in0.0 mm 0.00 in/hr0.0 mm/hr 0.00 in0.0 mm
09:30 PM 70.6°F21.4°C 17.3°F-8.2°C 13% Calm Calm -- 29.74 in1007.1 mb 0.00 in0.0 mm 0.00 in/hr0.0 mm/hr 0.00 in0.0 mm
09:45 PM 69.9°F21.1°C 20.1°F-6.6°C 15% Calm Calm -- 29.74 in1007.1 mb 0.00 in0.0 mm 0.00 in/hr0.0 mm/hr 0.00 in0.0 mm
10:00 PM 68.8°F20.4°C 20.7°F-6.3°C 16% Calm Calm -- 29.75 in1007.5 mb 0.00 in0.0 mm 0.00 in/hr0.0 mm/hr 0.00 in0.0 mm
10:15 PM 68.1°F20.1°C 20.2°F-6.6°C 16% Calm Calm -- 29.75 in1007.5 mb 0.00 in0.0 mm 0.00 in/hr0.0 mm/hr 0.00 in0.0 mm
10:30 PM 67.7°F19.8°C 21.3°F-5.9°C 17% Calm Calm -- 29.76 in1007.8 mb 0.00 in0.0 mm 0.00 in/hr0.0 mm/hr 0.00 in0.0 mm
10:45 PM 67.3°F19.6°C 22.3°F-5.4°C 18% Calm Calm -- 29.76 in1007.8 mb 0.00 in0.0 mm 0.00 in/hr0.0 mm/hr 0.00 in0.0 mm
11:00 PM 66.0°F18.9°C 22.5°F-5.3°C 19% Calm Calm -- 29.76 in1007.8 mb 0.00 in0.0 mm 0.00 in/hr0.0 mm/hr 0.00 in0.0 mm
11:15 PM 65.5°F18.6°C 18.0°F-7.8°C 16% Calm Calm -- 29.77 in1008.1 mb 0.00 in0.0 mm 0.00 in/hr0.0 mm/hr 0.00 in0.0 mm
11:30 PM 67.7°F19.8°C 15.0°F-9.4°C 13% 0.3 mph WNW0.5 kmh WNW 3.0 mph4.8 kmh 29.77 in1008.1 mb 0.00 in0.0 mm 0.00 in/hr0.0 mm/hr 0.00 in0.0 mm
11:45 PM 72.9°F22.7°C 10.7°F-11.8°C 9% 1.5 mph W2.4 kmh W 7.0 mph11.3 kmh 29.77 in1008.1 mb 0.00 in0.0 mm 0.00 in/hr0.0 mm/hr 0.00 in0.0 mm